sensor_id;sensor_type;location;lat;lon;timestamp;P1;durP1;ratioP1;P2;durP2;ratioP2
76393;SDS011;65216;51.090;-115.352;2023-06-14T00:01:58;13.00;;;2.40;;
76393;SDS011;65216;51.090;-115.352;2023-06-14T00:04:25;12.30;;;3.50;;
76393;SDS011;65216;51.090;-115.352;2023-06-14T00:06:53;9.40;;;2.50;;
76393;SDS011;65216;51.090;-115.352;2023-06-14T00:09:23;8.40;;;2.30;;
76393;SDS011;65216;51.090;-115.352;2023-06-14T00:11:50;9.50;;;2.50;;
76393;SDS011;65216;51.090;-115.352;2023-06-14T00:14:18;11.40;;;2.40;;
76393;SDS011;65216;51.090;-115.352;2023-06-14T00:16:45;8.20;;;2.10;;
76393;SDS011;65216;51.090;-115.352;2023-06-14T00:19:15;6.70;;;2.10;;
76393;SDS011;65216;51.090;-115.352;2023-06-14T00:21:46;10.60;;;2.40;;
76393;SDS011;65216;51.090;-115.352;2023-06-14T00:24:13;10.40;;;2.10;;
76393;SDS011;65216;51.090;-115.352;2023-06-14T00:26:41;9.30;;;2.30;;
76393;SDS011;65216;51.090;-115.352;2023-06-14T00:29:11;10.70;;;2.20;;
76393;SDS011;65216;51.090;-115.352;2023-06-14T00:31:39;7.60;;;2.10;;
76393;SDS011;65216;51.090;-115.352;2023-06-14T00:34:10;6.60;;;2.00;;
76393;SDS011;65216;51.090;-115.352;2023-06-14T00:36:37;11.20;;;2.10;;
76393;SDS011;65216;51.090;-115.352;2023-06-14T00:39:05;10.00;;;2.00;;
76393;SDS011;65216;51.090;-115.352;2023-06-14T00:41:33;12.50;;;2.40;;
76393;SDS011;65216;51.090;-115.352;2023-06-14T00:44:01;11.90;;;2.10;;
76393;SDS011;65216;51.090;-115.352;2023-06-14T00:46:32;9.70;;;2.20;;
76393;SDS011;65216;51.090;-115.352;2023-06-14T00:49:02;8.10;;;1.90;;
76393;SDS011;65216;51.090;-115.352;2023-06-14T00:51:34;11.50;;;2.50;;
76393;SDS011;65216;51.090;-115.352;2023-06-14T00:54:01;6.80;;;2.00;;
76393;SDS011;65216;51.090;-115.352;2023-06-14T00:56:30;6.60;;;1.90;;
76393;SDS011;65216;51.090;-115.352;2023-06-14T00:58:58;6.20;;;1.90;;
76393;SDS011;65216;51.090;-115.352;2023-06-14T01:01:25;10.50;;;2.60;;
76393;SDS011;65216;51.090;-115.352;2023-06-14T01:03:54;8.60;;;1.80;;
76393;SDS011;65216;51.090;-115.352;2023-06-14T01:06:43;9.90;;;1.80;;
76393;SDS011;65216;51.090;-115.352;2023-06-14T01:09:43;9.40;;;1.90;;
76393;SDS011;65216;51.090;-115.352;2023-06-14T01:15:23;9.70;;;1.80;;
76393;SDS011;65216;51.090;-115.352;2023-06-14T01:17:51;9.10;;;2.00;;
76393;SDS011;65216;51.090;-115.352;2023-06-14T01:20:20;9.20;;;2.10;;
76393;SDS011;65216;51.090;-115.352;2023-06-14T01:22:52;16.10;;;2.10;;
76393;SDS011;65216;51.090;-115.352;2023-06-14T01:25:22;13.90;;;1.70;;
76393;SDS011;65216;51.090;-115.352;2023-06-14T01:28:05;8.20;;;2.00;;
76393;SDS011;65216;51.090;-115.352;2023-06-14T01:30:40;9.60;;;2.20;;
76393;SDS011;65216;51.090;-115.352;2023-06-14T01:33:15;10.60;;;1.90;;
76393;SDS011;65216;51.090;-115.352;2023-06-14T01:35:52;10.20;;;1.80;;
76393;SDS011;65216;51.090;-115.352;2023-06-14T01:38:27;7.90;;;2.00;;
76393;SDS011;65216;51.090;-115.352;2023-06-14T01:40:58;7.60;;;1.90;;
76393;SDS011;65216;51.090;-115.352;2023-06-14T01:43:30;11.10;;;1.80;;
76393;SDS011;65216;51.090;-115.352;2023-06-14T01:45:57;8.20;;;1.80;;
76393;SDS011;65216;51.090;-115.352;2023-06-14T01:48:26;12.60;;;1.70;;
76393;SDS011;65216;51.090;-115.352;2023-06-14T01:50:54;14.60;;;2.00;;
76393;SDS011;65216;51.090;-115.352;2023-06-14T01:53:21;10.90;;;2.40;;
76393;SDS011;65216;51.090;-115.352;2023-06-14T01:55:54;9.50;;;1.80;;
76393;SDS011;65216;51.090;-115.352;2023-06-14T01:58:25;10.00;;;2.00;;
76393;SDS011;65216;51.090;-115.352;2023-06-14T02:00:52;16.20;;;1.80;;
76393;SDS011;65216;51.090;-115.352;2023-06-14T02:03:21;16.00;;;2.00;;
76393;SDS011;65216;51.090;-115.352;2023-06-14T02:05:49;13.20;;;2.10;;
76393;SDS011;65216;51.090;-115.352;2023-06-14T02:08:16;13.50;;;2.30;;
76393;SDS011;65216;51.090;-115.352;2023-06-14T02:10:44;12.20;;;1.80;;
76393;SDS011;65216;51.090;-115.352;2023-06-14T02:13:11;14.30;;;2.00;;
76393;SDS011;65216;51.090;-115.352;2023-06-14T02:15:39;14.00;;;2.00;;
76393;SDS011;65216;51.090;-115.352;2023-06-14T02:18:09;8.00;;;1.80;;
76393;SDS011;65216;51.090;-115.352;2023-06-14T02:20:42;12.50;;;1.80;;
76393;SDS011;65216;51.090;-115.352;2023-06-14T02:23:09;15.70;;;1.70;;
76393;SDS011;65216;51.090;-115.352;2023-06-14T02:25:39;15.30;;;2.20;;
76393;SDS011;65216;51.090;-115.352;2023-06-14T02:28:06;14.20;;;2.50;;
76393;SDS011;65216;51.090;-115.352;2023-06-14T02:30:34;17.10;;;2.00;;
76393;SDS011;65216;51.090;-115.352;2023-06-14T02:33:01;12.60;;;1.80;;
76393;SDS011;65216;51.090;-115.352;2023-06-14T02:35:30;13.70;;;1.90;;
76393;SDS011;65216;51.090;-115.352;2023-06-14T02:37:57;15.80;;;2.00;;
76393;SDS011;65216;51.090;-115.352;2023-06-14T02:40:25;14.00;;;1.90;;
76393;SDS011;65216;51.090;-115.352;2023-06-14T02:42:52;20.40;;;2.40;;
76393;SDS011;65216;51.090;-115.352;2023-06-14T02:45:23;15.60;;;2.30;;
76393;SDS011;65216;51.090;-115.352;2023-06-14T02:47:54;17.60;;;2.10;;
76393;SDS011;65216;51.090;-115.352;2023-06-14T02:50:22;15.30;;;2.20;;
76393;SDS011;65216;51.090;-115.352;2023-06-14T02:52:50;16.60;;;2.20;;
76393;SDS011;65216;51.090;-115.352;2023-06-14T02:55:18;15.20;;;2.20;;
76393;SDS011;65216;51.090;-115.352;2023-06-14T02:57:48;11.90;;;2.10;;
76393;SDS011;65216;51.090;-115.352;2023-06-14T03:00:16;17.50;;;2.20;;
76393;SDS011;65216;51.090;-115.352;2023-06-14T03:02:47;13.70;;;2.20;;
76393;SDS011;65216;51.090;-115.352;2023-06-14T03:05:17;17.60;;;2.20;;
76393;SDS011;65216;51.090;-115.352;2023-06-14T03:07:51;12.00;;;1.80;;
76393;SDS011;65216;51.090;-115.352;2023-06-14T03:10:20;17.80;;;1.70;;
76393;SDS011;65216;51.090;-115.352;2023-06-14T03:12:48;13.80;;;2.20;;
76393;SDS011;65216;51.090;-115.352;2023-06-14T03:15:18;11.70;;;1.90;;
76393;SDS011;65216;51.090;-115.352;2023-06-14T03:17:48;16.30;;;1.80;;
76393;SDS011;65216;51.090;-115.352;2023-06-14T03:20:22;15.70;;;1.80;;
76393;SDS011;65216;51.090;-115.352;2023-06-14T03:22:49;8.10;;;1.20;;
76393;SDS011;65216;51.090;-115.352;2023-06-14T03:25:18;9.50;;;1.40;;
76393;SDS011;65216;51.090;-115.352;2023-06-14T03:27:48;9.50;;;1.40;;
76393;SDS011;65216;51.090;-115.352;2023-06-14T03:30:15;5.50;;;1.20;;
76393;SDS011;65216;51.090;-115.352;2023-06-14T03:32:43;11.10;;;1.40;;
76393;SDS011;65216;51.090;-115.352;2023-06-14T03:35:10;12.90;;;1.70;;
76393;SDS011;65216;51.090;-115.352;2023-06-14T03:37:44;6.00;;;1.00;;
76393;SDS011;65216;51.090;-115.352;2023-06-14T03:40:15;9.40;;;1.30;;
76393;SDS011;65216;51.090;-115.352;2023-06-14T03:42:44;7.80;;;1.40;;
76393;SDS011;65216;51.090;-115.352;2023-06-14T03:45:14;8.40;;;1.40;;
76393;SDS011;65216;51.090;-115.352;2023-06-14T03:47:41;10.40;;;1.70;;
76393;SDS011;65216;51.090;-115.352;2023-06-14T03:50:09;7.50;;;1.10;;
76393;SDS011;65216;51.090;-115.352;2023-06-14T03:52:41;9.20;;;1.30;;
76393;SDS011;65216;51.090;-115.352;2023-06-14T03:55:10;9.80;;;1.40;;
76393;SDS011;65216;51.090;-115.352;2023-06-14T03:57:39;11.90;;;1.60;;
76393;SDS011;65216;51.090;-115.352;2023-06-14T04:00:08;9.60;;;1.40;;
76393;SDS011;65216;51.090;-115.352;2023-06-14T04:02:36;9.00;;;1.40;;
76393;SDS011;65216;51.090;-115.352;2023-06-14T04:05:04;10.10;;;1.40;;
76393;SDS011;65216;51.090;-115.352;2023-06-14T04:07:35;5.80;;;1.50;;
76393;SDS011;65216;51.090;-115.352;2023-06-14T04:10:15;9.20;;;1.40;;
76393;SDS011;65216;51.090;-115.352;2023-06-14T04:15:11;10.50;;;1.20;;
76393;SDS011;65216;51.090;-115.352;2023-06-14T04:17:41;10.30;;;1.40;;
76393;SDS011;65216;51.090;-115.352;2023-06-14T04:20:08;7.00;;;1.20;;
76393;SDS011;65216;51.090;-115.352;2023-06-14T04:22:39;7.40;;;1.10;;
76393;SDS011;65216;51.090;-115.352;2023-06-14T04:25:07;7.70;;;1.20;;
76393;SDS011;65216;51.090;-115.352;2023-06-14T04:27:35;8.70;;;1.30;;
76393;SDS011;65216;51.090;-115.352;2023-06-14T04:30:06;16.80;;;1.50;;
76393;SDS011;65216;51.090;-115.352;2023-06-14T04:32:33;8.00;;;1.30;;
76393;SDS011;65216;51.090;-115.352;2023-06-14T04:35:07;9.50;;;1.30;;
76393;SDS011;65216;51.090;-115.352;2023-06-14T04:37:35;6.40;;;1.10;;
76393;SDS011;65216;51.090;-115.352;2023-06-14T04:40:10;5.10;;;1.00;;
76393;SDS011;65216;51.090;-115.352;2023-06-14T04:42:37;6.50;;;1.10;;
76393;SDS011;65216;51.090;-115.352;2023-06-14T04:45:07;8.30;;;1.20;;
76393;SDS011;65216;51.090;-115.352;2023-06-14T04:47:35;7.70;;;1.00;;
76393;SDS011;65216;51.090;-115.352;2023-06-14T04:50:04;6.50;;;1.00;;
76393;SDS011;65216;51.090;-115.352;2023-06-14T04:52:31;4.40;;;1.00;;
76393;SDS011;65216;51.090;-115.352;2023-06-14T04:54:59;6.70;;;1.10;;
76393;SDS011;65216;51.090;-115.352;2023-06-14T04:57:27;6.40;;;1.10;;
76393;SDS011;65216;51.090;-115.352;2023-06-14T04:59:56;6.50;;;1.00;;
76393;SDS011;65216;51.090;-115.352;2023-06-14T05:02:27;4.80;;;0.90;;
76393;SDS011;65216;51.090;-115.352;2023-06-14T05:04:56;4.30;;;1.00;;
76393;SDS011;65216;51.090;-115.352;2023-06-14T05:07:25;4.20;;;0.90;;
76393;SDS011;65216;51.090;-115.352;2023-06-14T05:09:52;3.00;;;0.80;;
76393;SDS011;65216;51.090;-115.352;2023-06-14T05:12:20;5.10;;;0.80;;
76393;SDS011;65216;51.090;-115.352;2023-06-14T05:14:47;4.30;;;0.80;;
76393;SDS011;65216;51.090;-115.352;2023-06-14T05:17:15;3.60;;;0.70;;
76393;SDS011;65216;51.090;-115.352;2023-06-14T05:19:43;5.90;;;0.80;;
76393;SDS011;65216;51.090;-115.352;2023-06-14T05:22:11;3.80;;;0.70;;
76393;SDS011;65216;51.090;-115.352;2023-06-14T05:24:41;2.90;;;0.80;;
76393;SDS011;65216;51.090;-115.352;2023-06-14T05:27:08;3.70;;;0.80;;
76393;SDS011;65216;51.090;-115.352;2023-06-14T05:29:36;4.50;;;1.00;;
76393;SDS011;65216;51.090;-115.352;2023-06-14T05:32:04;2.50;;;0.60;;
76393;SDS011;65216;51.090;-115.352;2023-06-14T05:34:35;2.90;;;0.70;;
76393;SDS011;65216;51.090;-115.352;2023-06-14T05:37:02;4.60;;;0.70;;
76393;SDS011;65216;51.090;-115.352;2023-06-14T05:39:30;3.30;;;0.70;;
76393;SDS011;65216;51.090;-115.352;2023-06-14T05:41:57;3.10;;;0.70;;
76393;SDS011;65216;51.090;-115.352;2023-06-14T05:44:28;5.20;;;1.00;;
76393;SDS011;65216;51.090;-115.352;2023-06-14T05:46:58;3.40;;;0.60;;
76393;SDS011;65216;51.090;-115.352;2023-06-14T05:49:25;7.70;;;0.80;;
76393;SDS011;65216;51.090;-115.352;2023-06-14T05:51:53;3.40;;;1.10;;
76393;SDS011;65216;51.090;-115.352;2023-06-14T05:54:20;3.20;;;0.80;;
76393;SDS011;65216;51.090;-115.352;2023-06-14T05:56:48;4.90;;;0.70;;
76393;SDS011;65216;51.090;-115.352;2023-06-14T05:59:15;4.50;;;0.70;;
76393;SDS011;65216;51.090;-115.352;2023-06-14T06:01:43;4.10;;;0.80;;
76393;SDS011;65216;51.090;-115.352;2023-06-14T06:04:14;3.10;;;0.80;;
76393;SDS011;65216;51.090;-115.352;2023-06-14T06:06:42;4.00;;;0.80;;
76393;SDS011;65216;51.090;-115.352;2023-06-14T06:09:09;4.50;;;0.90;;
76393;SDS011;65216;51.090;-115.352;2023-06-14T06:11:37;2.50;;;0.90;;
76393;SDS011;65216;51.090;-115.352;2023-06-14T06:14:04;3.30;;;0.80;;
76393;SDS011;65216;51.090;-115.352;2023-06-14T06:16:32;3.90;;;1.30;;
76393;SDS011;65216;51.090;-115.352;2023-06-14T06:18:59;4.60;;;1.00;;
76393;SDS011;65216;51.090;-115.352;2023-06-14T06:21:30;4.20;;;1.00;;
76393;SDS011;65216;51.090;-115.352;2023-06-14T06:23:57;3.80;;;0.90;;
76393;SDS011;65216;51.090;-115.352;2023-06-14T06:26:25;4.70;;;1.10;;
76393;SDS011;65216;51.090;-115.352;2023-06-14T06:28:53;4.60;;;1.00;;
76393;SDS011;65216;51.090;-115.352;2023-06-14T06:31:21;4.80;;;0.90;;
76393;SDS011;65216;51.090;-115.352;2023-06-14T06:33:49;6.20;;;1.00;;
76393;SDS011;65216;51.090;-115.352;2023-06-14T06:36:16;3.50;;;0.80;;
76393;SDS011;65216;51.090;-115.352;2023-06-14T06:38:44;9.40;;;1.40;;
76393;SDS011;65216;51.090;-115.352;2023-06-14T06:41:12;3.60;;;0.80;;
76393;SDS011;65216;51.090;-115.352;2023-06-14T06:43:39;4.80;;;1.00;;
76393;SDS011;65216;51.090;-115.352;2023-06-14T06:46:07;3.80;;;0.70;;
76393;SDS011;65216;51.090;-115.352;2023-06-14T06:48:38;3.80;;;0.90;;
76393;SDS011;65216;51.090;-115.352;2023-06-14T06:51:06;4.40;;;1.00;;
76393;SDS011;65216;51.090;-115.352;2023-06-14T06:53:34;3.70;;;0.90;;
76393;SDS011;65216;51.090;-115.352;2023-06-14T06:56:01;3.90;;;0.90;;
76393;SDS011;65216;51.090;-115.352;2023-06-14T06:58:28;6.90;;;1.00;;
76393;SDS011;65216;51.090;-115.352;2023-06-14T07:00:56;3.90;;;0.90;;
76393;SDS011;65216;51.090;-115.352;2023-06-14T07:03:24;7.40;;;1.00;;
76393;SDS011;65216;51.090;-115.352;2023-06-14T07:05:54;8.00;;;1.00;;
76393;SDS011;65216;51.090;-115.352;2023-06-14T07:08:25;5.40;;;1.20;;
76393;SDS011;65216;51.090;-115.352;2023-06-14T07:10:53;6.10;;;1.00;;
76393;SDS011;65216;51.090;-115.352;2023-06-14T07:13:20;5.30;;;0.90;;
76393;SDS011;65216;51.090;-115.352;2023-06-14T07:15:49;6.00;;;1.30;;
76393;SDS011;65216;51.090;-115.352;2023-06-14T07:18:19;2.40;;;0.80;;
76393;SDS011;65216;51.090;-115.352;2023-06-14T07:20:47;4.10;;;1.00;;
76393;SDS011;65216;51.090;-115.352;2023-06-14T07:23:14;3.70;;;0.80;;
76393;SDS011;65216;51.090;-115.352;2023-06-14T07:25:42;2.00;;;0.80;;
76393;SDS011;65216;51.090;-115.352;2023-06-14T07:28:12;5.60;;;0.80;;
76393;SDS011;65216;51.090;-115.352;2023-06-14T07:30:40;3.20;;;0.80;;
76393;SDS011;65216;51.090;-115.352;2023-06-14T07:33:07;2.30;;;0.70;;
76393;SDS011;65216;51.090;-115.352;2023-06-14T07:35:36;3.80;;;0.80;;
76393;SDS011;65216;51.090;-115.352;2023-06-14T07:38:03;3.00;;;0.90;;
76393;SDS011;65216;51.090;-115.352;2023-06-14T07:40:31;1.70;;;0.70;;
76393;SDS011;65216;51.090;-115.352;2023-06-14T07:42:58;2.50;;;0.70;;
76393;SDS011;65216;51.090;-115.352;2023-06-14T07:45:27;1.10;;;0.50;;
76393;SDS011;65216;51.090;-115.352;2023-06-14T07:47:55;3.00;;;0.70;;
76393;SDS011;65216;51.090;-115.352;2023-06-14T07:50:25;1.20;;;0.50;;
76393;SDS011;65216;51.090;-115.352;2023-06-14T07:52:52;2.20;;;0.60;;
76393;SDS011;65216;51.090;-115.352;2023-06-14T07:55:20;3.40;;;0.70;;
76393;SDS011;65216;51.090;-115.352;2023-06-14T07:57:51;2.00;;;0.60;;
76393;SDS011;65216;51.090;-115.352;2023-06-14T08:00:19;2.10;;;0.70;;
76393;SDS011;65216;51.090;-115.352;2023-06-14T08:02:46;1.60;;;0.60;;
76393;SDS011;65216;51.090;-115.352;2023-06-14T08:05:14;2.90;;;0.60;;
76393;SDS011;65216;51.090;-115.352;2023-06-14T08:07:44;2.80;;;0.70;;
76393;SDS011;65216;51.090;-115.352;2023-06-14T08:10:12;1.70;;;0.70;;
76393;SDS011;65216;51.090;-115.352;2023-06-14T08:12:39;2.30;;;0.80;;
76393;SDS011;65216;51.090;-115.352;2023-06-14T08:15:09;1.40;;;0.50;;
76393;SDS011;65216;51.090;-115.352;2023-06-14T08:17:37;1.00;;;0.40;;
76393;SDS011;65216;51.090;-115.352;2023-06-14T08:20:05;1.10;;;0.50;;
76393;SDS011;65216;51.090;-115.352;2023-06-14T08:22:33;1.70;;;0.60;;
76393;SDS011;65216;51.090;-115.352;2023-06-14T08:25:01;1.10;;;0.50;;
76393;SDS011;65216;51.090;-115.352;2023-06-14T08:27:29;1.20;;;0.60;;
76393;SDS011;65216;51.090;-115.352;2023-06-14T08:29:57;1.50;;;0.50;;
76393;SDS011;65216;51.090;-115.352;2023-06-14T08:32:24;1.10;;;0.50;;
76393;SDS011;65216;51.090;-115.352;2023-06-14T08:34:52;0.80;;;0.40;;
76393;SDS011;65216;51.090;-115.352;2023-06-14T08:37:22;1.90;;;0.50;;
76393;SDS011;65216;51.090;-115.352;2023-06-14T08:39:50;1.20;;;0.50;;
76393;SDS011;65216;51.090;-115.352;2023-06-14T08:42:19;0.60;;;0.40;;
76393;SDS011;65216;51.090;-115.352;2023-06-14T08:44:50;1.80;;;0.50;;
76393;SDS011;65216;51.090;-115.352;2023-06-14T08:47:18;2.10;;;0.50;;
76393;SDS011;65216;51.090;-115.352;2023-06-14T08:49:47;1.40;;;0.50;;
76393;SDS011;65216;51.090;-115.352;2023-06-14T08:52:18;1.40;;;0.50;;
76393;SDS011;65216;51.090;-115.352;2023-06-14T08:54:47;1.90;;;0.60;;
76393;SDS011;65216;51.090;-115.352;2023-06-14T08:57:15;0.90;;;0.50;;
76393;SDS011;65216;51.090;-115.352;2023-06-14T08:59:47;2.10;;;0.80;;
76393;SDS011;65216;51.090;-115.352;2023-06-14T09:02:19;1.30;;;0.60;;
76393;SDS011;65216;51.090;-115.352;2023-06-14T09:04:48;1.80;;;0.70;;
76393;SDS011;65216;51.090;-115.352;2023-06-14T09:07:18;0.50;;;0.50;;
76393;SDS011;65216;51.090;-115.352;2023-06-14T09:09:45;1.10;;;0.60;;
76393;SDS011;65216;51.090;-115.352;2023-06-14T09:12:13;0.90;;;0.40;;
76393;SDS011;65216;51.090;-115.352;2023-06-14T09:14:41;1.20;;;0.60;;
76393;SDS011;65216;51.090;-115.352;2023-06-14T09:17:08;1.60;;;0.60;;
76393;SDS011;65216;51.090;-115.352;2023-06-14T09:19:39;0.60;;;0.40;;
76393;SDS011;65216;51.090;-115.352;2023-06-14T09:22:07;1.30;;;0.60;;
76393;SDS011;65216;51.090;-115.352;2023-06-14T09:24:38;1.10;;;0.60;;
76393;SDS011;65216;51.090;-115.352;2023-06-14T09:27:05;1.40;;;0.60;;
76393;SDS011;65216;51.090;-115.352;2023-06-14T09:29:34;1.80;;;0.60;;
76393;SDS011;65216;51.090;-115.352;2023-06-14T09:32:01;1.30;;;0.60;;
76393;SDS011;65216;51.090;-115.352;2023-06-14T09:34:29;0.70;;;0.50;;
76393;SDS011;65216;51.090;-115.352;2023-06-14T09:36:56;0.50;;;0.40;;
76393;SDS011;65216;51.090;-115.352;2023-06-14T09:39:24;1.30;;;0.60;;
76393;SDS011;65216;51.090;-115.352;2023-06-14T09:41:53;1.80;;;0.70;;
76393;SDS011;65216;51.090;-115.352;2023-06-14T09:44:21;1.00;;;0.50;;
76393;SDS011;65216;51.090;-115.352;2023-06-14T09:46:56;1.50;;;0.70;;
76393;SDS011;65216;51.090;-115.352;2023-06-14T09:49:26;1.60;;;0.60;;
76393;SDS011;65216;51.090;-115.352;2023-06-14T09:51:55;1.80;;;0.60;;
76393;SDS011;65216;51.090;-115.352;2023-06-14T09:54:25;0.60;;;0.40;;
76393;SDS011;65216;51.090;-115.352;2023-06-14T09:56:55;1.50;;;0.60;;
76393;SDS011;65216;51.090;-115.352;2023-06-14T09:59:26;1.20;;;0.50;;
76393;SDS011;65216;51.090;-115.352;2023-06-14T10:01:58;0.80;;;0.50;;
76393;SDS011;65216;51.090;-115.352;2023-06-14T10:04:30;1.10;;;0.60;;
76393;SDS011;65216;51.090;-115.352;2023-06-14T10:07:00;1.40;;;0.60;;
76393;SDS011;65216;51.090;-115.352;2023-06-14T10:09:30;1.20;;;0.60;;
76393;SDS011;65216;51.090;-115.352;2023-06-14T10:11:58;1.10;;;0.50;;
76393;SDS011;65216;51.090;-115.352;2023-06-14T10:14:27;1.30;;;0.60;;
76393;SDS011;65216;51.090;-115.352;2023-06-14T10:17:04;1.90;;;0.80;;
76393;SDS011;65216;51.090;-115.352;2023-06-14T10:19:46;0.70;;;0.40;;
76393;SDS011;65216;51.090;-115.352;2023-06-14T10:22:30;1.30;;;0.50;;
76393;SDS011;65216;51.090;-115.352;2023-06-14T10:25:02;1.80;;;0.70;;
76393;SDS011;65216;51.090;-115.352;2023-06-14T10:27:38;1.80;;;0.60;;
76393;SDS011;65216;51.090;-115.352;2023-06-14T10:30:15;0.90;;;0.50;;
76393;SDS011;65216;51.090;-115.352;2023-06-14T10:33:06;1.90;;;0.70;;
76393;SDS011;65216;51.090;-115.352;2023-06-14T10:35:36;2.20;;;0.70;;
76393;SDS011;65216;51.090;-115.352;2023-06-14T10:38:15;2.30;;;0.80;;
76393;SDS011;65216;51.090;-115.352;2023-06-14T10:40:57;1.80;;;0.70;;
76393;SDS011;65216;51.090;-115.352;2023-06-14T10:43:27;1.90;;;0.70;;
76393;SDS011;65216;51.090;-115.352;2023-06-14T10:46:17;2.10;;;0.80;;
76393;SDS011;65216;51.090;-115.352;2023-06-14T10:48:49;1.40;;;0.60;;
76393;SDS011;65216;51.090;-115.352;2023-06-14T10:51:29;1.00;;;0.50;;
76393;SDS011;65216;51.090;-115.352;2023-06-14T10:54:15;1.80;;;0.80;;
76393;SDS011;65216;51.090;-115.352;2023-06-14T10:56:50;2.00;;;0.70;;
76393;SDS011;65216;51.090;-115.352;2023-06-14T10:59:20;2.50;;;0.90;;
76393;SDS011;65216;51.090;-115.352;2023-06-14T11:05:03;1.80;;;0.70;;
76393;SDS011;65216;51.090;-115.352;2023-06-14T11:10:40;2.80;;;0.80;;
76393;SDS011;65216;51.090;-115.352;2023-06-14T11:13:12;1.20;;;0.60;;
76393;SDS011;65216;51.090;-115.352;2023-06-14T11:15:45;1.70;;;0.70;;
76393;SDS011;65216;51.090;-115.352;2023-06-14T11:18:14;1.50;;;0.70;;
76393;SDS011;65216;51.090;-115.352;2023-06-14T11:20:45;1.90;;;0.70;;
76393;SDS011;65216;51.090;-115.352;2023-06-14T11:23:13;1.00;;;0.50;;
76393;SDS011;65216;51.090;-115.352;2023-06-14T11:25:41;0.90;;;0.50;;
76393;SDS011;65216;51.090;-115.352;2023-06-14T11:28:15;1.90;;;0.70;;
76393;SDS011;65216;51.090;-115.352;2023-06-14T11:30:45;1.60;;;0.60;;
76393;SDS011;65216;51.090;-115.352;2023-06-14T11:33:17;1.40;;;0.50;;
76393;SDS011;65216;51.090;-115.352;2023-06-14T11:35:45;1.80;;;0.80;;
76393;SDS011;65216;51.090;-115.352;2023-06-14T11:38:16;1.10;;;0.70;;
76393;SDS011;65216;51.090;-115.352;2023-06-14T11:40:43;1.00;;;0.60;;
76393;SDS011;65216;51.090;-115.352;2023-06-14T11:43:13;1.90;;;0.60;;
76393;SDS011;65216;51.090;-115.352;2023-06-14T11:45:41;1.00;;;0.60;;
76393;SDS011;65216;51.090;-115.352;2023-06-14T11:48:08;1.50;;;0.60;;
76393;SDS011;65216;51.090;-115.352;2023-06-14T11:50:38;1.30;;;0.60;;
76393;SDS011;65216;51.090;-115.352;2023-06-14T11:53:08;1.40;;;0.60;;
76393;SDS011;65216;51.090;-115.352;2023-06-14T11:55:39;0.80;;;0.50;;
76393;SDS011;65216;51.090;-115.352;2023-06-14T11:58:08;1.50;;;0.70;;
76393;SDS011;65216;51.090;-115.352;2023-06-14T12:00:37;1.40;;;0.70;;
76393;SDS011;65216;51.090;-115.352;2023-06-14T12:03:04;1.50;;;0.70;;
76393;SDS011;65216;51.090;-115.352;2023-06-14T12:05:33;1.00;;;0.60;;
76393;SDS011;65216;51.090;-115.352;2023-06-14T12:08:02;1.60;;;0.60;;
76393;SDS011;65216;51.090;-115.352;2023-06-14T12:10:43;0.80;;;0.40;;
76393;SDS011;65216;51.090;-115.352;2023-06-14T12:13:10;1.00;;;0.60;;
76393;SDS011;65216;51.090;-115.352;2023-06-14T12:15:38;1.50;;;0.70;;
76393;SDS011;65216;51.090;-115.352;2023-06-14T12:18:06;2.20;;;0.80;;
76393;SDS011;65216;51.090;-115.352;2023-06-14T12:20:39;2.10;;;0.70;;
76393;SDS011;65216;51.090;-115.352;2023-06-14T12:23:07;1.20;;;0.50;;
76393;SDS011;65216;51.090;-115.352;2023-06-14T12:25:36;1.20;;;0.60;;
76393;SDS011;65216;51.090;-115.352;2023-06-14T12:28:07;1.30;;;0.60;;
76393;SDS011;65216;51.090;-115.352;2023-06-14T12:30:38;1.80;;;0.70;;
76393;SDS011;65216;51.090;-115.352;2023-06-14T12:33:06;1.30;;;0.80;;
76393;SDS011;65216;51.090;-115.352;2023-06-14T12:35:33;1.10;;;0.70;;
76393;SDS011;65216;51.090;-115.352;2023-06-14T12:38:01;1.40;;;0.70;;
76393;SDS011;65216;51.090;-115.352;2023-06-14T12:40:29;2.40;;;0.80;;
76393;SDS011;65216;51.090;-115.352;2023-06-14T12:42:58;2.60;;;0.60;;
76393;SDS011;65216;51.090;-115.352;2023-06-14T12:45:25;2.00;;;0.70;;
76393;SDS011;65216;51.090;-115.352;2023-06-14T12:47:52;1.40;;;0.70;;
76393;SDS011;65216;51.090;-115.352;2023-06-14T12:50:20;1.70;;;0.70;;
76393;SDS011;65216;51.090;-115.352;2023-06-14T12:52:47;1.60;;;0.60;;
76393;SDS011;65216;51.090;-115.352;2023-06-14T12:55:15;1.50;;;0.70;;
76393;SDS011;65216;51.090;-115.352;2023-06-14T12:57:42;1.70;;;0.80;;
76393;SDS011;65216;51.090;-115.352;2023-06-14T13:00:10;1.40;;;0.60;;
76393;SDS011;65216;51.090;-115.352;2023-06-14T13:02:40;1.80;;;0.80;;
76393;SDS011;65216;51.090;-115.352;2023-06-14T13:05:13;3.00;;;0.90;;
76393;SDS011;65216;51.090;-115.352;2023-06-14T13:07:41;2.20;;;0.90;;
76393;SDS011;65216;51.090;-115.352;2023-06-14T13:10:11;1.90;;;0.80;;
76393;SDS011;65216;51.090;-115.352;2023-06-14T13:12:38;2.00;;;0.80;;
76393;SDS011;65216;51.090;-115.352;2023-06-14T13:15:06;1.70;;;0.80;;
76393;SDS011;65216;51.090;-115.352;2023-06-14T13:17:36;2.00;;;0.80;;
76393;SDS011;65216;51.090;-115.352;2023-06-14T13:20:06;2.30;;;1.00;;
76393;SDS011;65216;51.090;-115.352;2023-06-14T13:22:34;2.80;;;0.90;;
76393;SDS011;65216;51.090;-115.352;2023-06-14T13:25:03;1.40;;;0.70;;
76393;SDS011;65216;51.090;-115.352;2023-06-14T13:27:30;1.50;;;0.70;;
76393;SDS011;65216;51.090;-115.352;2023-06-14T13:29:58;1.60;;;0.80;;
76393;SDS011;65216;51.090;-115.352;2023-06-14T13:32:25;2.60;;;0.70;;
76393;SDS011;65216;51.090;-115.352;2023-06-14T13:34:53;2.50;;;0.80;;
76393;SDS011;65216;51.090;-115.352;2023-06-14T13:37:21;2.40;;;0.90;;
76393;SDS011;65216;51.090;-115.352;2023-06-14T13:39:48;2.30;;;0.80;;
76393;SDS011;65216;51.090;-115.352;2023-06-14T13:42:16;2.40;;;0.90;;
76393;SDS011;65216;51.090;-115.352;2023-06-14T13:44:44;2.70;;;0.90;;
76393;SDS011;65216;51.090;-115.352;2023-06-14T13:47:14;1.90;;;0.70;;
76393;SDS011;65216;51.090;-115.352;2023-06-14T13:49:44;2.40;;;0.80;;
76393;SDS011;65216;51.090;-115.352;2023-06-14T13:52:13;2.90;;;1.10;;
76393;SDS011;65216;51.090;-115.352;2023-06-14T13:54:43;2.50;;;1.00;;
76393;SDS011;65216;51.090;-115.352;2023-06-14T13:57:10;2.30;;;0.90;;
76393;SDS011;65216;51.090;-115.352;2023-06-14T13:59:41;2.10;;;1.00;;
76393;SDS011;65216;51.090;-115.352;2023-06-14T14:02:12;2.80;;;1.00;;
76393;SDS011;65216;51.090;-115.352;2023-06-14T14:04:43;2.20;;;0.80;;
76393;SDS011;65216;51.090;-115.352;2023-06-14T14:07:10;2.20;;;0.90;;
76393;SDS011;65216;51.090;-115.352;2023-06-14T14:09:40;2.10;;;1.00;;
76393;SDS011;65216;51.090;-115.352;2023-06-14T14:12:14;2.00;;;0.80;;
76393;SDS011;65216;51.090;-115.352;2023-06-14T14:14:41;2.70;;;0.80;;
76393;SDS011;65216;51.090;-115.352;2023-06-14T14:17:09;2.30;;;0.90;;
76393;SDS011;65216;51.090;-115.352;2023-06-14T14:19:36;1.90;;;0.80;;
76393;SDS011;65216;51.090;-115.352;2023-06-14T14:22:07;1.70;;;0.80;;
76393;SDS011;65216;51.090;-115.352;2023-06-14T14:24:39;2.60;;;0.80;;
76393;SDS011;65216;51.090;-115.352;2023-06-14T14:27:10;3.70;;;1.30;;
76393;SDS011;65216;51.090;-115.352;2023-06-14T14:29:37;1.50;;;0.70;;
76393;SDS011;65216;51.090;-115.352;2023-06-14T14:32:08;1.60;;;0.70;;